Terminal Aerodrome Forecast
Issued by NWS

Current Version | Previous Version | Text Only | Print | Product List | Glossary On
Versions: 1 2 3 4 5 6 7 8 9 10 11 12 13 14 15 16 17 18 19 20 21 22 23 24 25 26 27
000
FTUS41 KOKX 060843 AAA
TAFHPN
TAF AMD
KHPN 060843Z 0609/0706 03008KT 5SM RA BR SCT007 OVC010
     FM061000 03008KT 3SM RA BR SCT005 OVC009
     FM061300 05011G17KT 2SM RA BR OVC006
     FM061800 08014G20KT 3/4SM -SHRADZ BR OVC005
     FM070000 10006KT 1/2SM -DZ FG OVC002
      AMD NOT SKED=

USA.gov is the U.S. government's official web portal to all federal, state and local government web resources and services.